<?xml version="1.0" encoding="UTF-8" standalone="no" ?>
<gpx xmlns="http://www.topografix.com/GPX/1/1" xmlns:xsi="http://www.w3.org/2001/XMLSchema-instance" xsi:schemaLocation="http://www.topografix.com/GPX/1/1 http://www.topografix.com/GPX/1/1/gpx.xsd" version="1.1" creator="VisuGPX - https://www.visugpx.com">
  <metadata>
    <name>Artichaut 2025 - course 10 kms</name>
    <desc><![CDATA[Nouveau parcours très roulant uniquement sur route.]]></desc>
  </metadata>
  <trk>
    <name><![CDATA[10 km 2025-20596905]]></name>
    <trkseg>
      <trkpt lat="45.00528" lon="-0.6254">
        <ele>10</ele>
        <time>2025-02-05T05:07:03Z</time>
      </trkpt>
      <trkpt lat="45.00582" lon="-0.62429">
        <ele>7</ele>
        <time>2025-02-05T05:07:35Z</time>
      </trkpt>
      <trkpt lat="45.00581" lon="-0.62416">
        <ele>7</ele>
        <time>2025-02-05T05:07:38Z</time>
      </trkpt>
      <trkpt lat="45.00578" lon="-0.62404">
        <ele>7</ele>
        <time>2025-02-05T05:07:41Z</time>
      </trkpt>
      <trkpt lat="45.00574" lon="-0.62394">
        <ele>7</ele>
        <time>2025-02-05T05:07:44Z</time>
      </trkpt>
      <trkpt lat="45.00567" lon="-0.62385">
        <ele>6</ele>
        <time>2025-02-05T05:07:47Z</time>
      </trkpt>
      <trkpt lat="45.00559" lon="-0.62377">
        <ele>6</ele>
        <time>2025-02-05T05:07:50Z</time>
      </trkpt>
      <trkpt lat="45.00549" lon="-0.62371">
        <ele>7</ele>
        <time>2025-02-05T05:07:54Z</time>
      </trkpt>
      <trkpt lat="45.0054" lon="-0.6237">
        <ele>7</ele>
        <time>2025-02-05T05:07:57Z</time>
      </trkpt>
      <trkpt lat="45.00529" lon="-0.62371">
        <ele>7</ele>
        <time>2025-02-05T05:08:00Z</time>
      </trkpt>
      <trkpt lat="45.00517" lon="-0.62387">
        <ele>7</ele>
        <time>2025-02-05T05:08:06Z</time>
      </trkpt>
      <trkpt lat="45.00494" lon="-0.62429">
        <ele>8</ele>
        <time>2025-02-05T05:08:18Z</time>
      </trkpt>
      <trkpt lat="45.00482" lon="-0.62454">
        <ele>9</ele>
        <time>2025-02-05T05:08:25Z</time>
      </trkpt>
      <trkpt lat="45.00474" lon="-0.62473">
        <ele>10</ele>
        <time>2025-02-05T05:08:31Z</time>
      </trkpt>
      <trkpt lat="45.0047" lon="-0.62485">
        <ele>11</ele>
        <time>2025-02-05T05:08:34Z</time>
      </trkpt>
      <trkpt lat="45.00471" lon="-0.62497">
        <ele>11</ele>
        <time>2025-02-05T05:08:37Z</time>
      </trkpt>
      <trkpt lat="45.00473" lon="-0.62507">
        <ele>11</ele>
        <time>2025-02-05T05:08:39Z</time>
      </trkpt>
      <trkpt lat="45.00477" lon="-0.62513">
        <ele>11</ele>
        <time>2025-02-05T05:08:41Z</time>
      </trkpt>
      <trkpt lat="45.00478" lon="-0.62515">
        <ele>11</ele>
        <time>2025-02-05T05:08:42Z</time>
      </trkpt>
      <trkpt lat="45.00482" lon="-0.6252">
        <ele>11</ele>
        <time>2025-02-05T05:08:43Z</time>
      </trkpt>
      <trkpt lat="45.00487" lon="-0.62526">
        <ele>11</ele>
        <time>2025-02-05T05:08:46Z</time>
      </trkpt>
      <trkpt lat="45.00531" lon="-0.62557">
        <ele>11</ele>
        <time>2025-02-05T05:09:02Z</time>
      </trkpt>
      <trkpt lat="45.00603" lon="-0.62419">
        <ele>7</ele>
        <time>2025-02-05T05:09:42Z</time>
      </trkpt>
      <trkpt lat="45.00642" lon="-0.62341">
        <ele>7</ele>
        <time>2025-02-05T05:10:05Z</time>
      </trkpt>
      <trkpt lat="45.00672" lon="-0.6237">
        <ele>7</ele>
        <time>2025-02-05T05:10:17Z</time>
      </trkpt>
      <trkpt lat="45.00674" lon="-0.62362">
        <ele>7</ele>
        <time>2025-02-05T05:10:19Z</time>
      </trkpt>
      <trkpt lat="45.00676" lon="-0.62352">
        <ele>7</ele>
        <time>2025-02-05T05:10:22Z</time>
      </trkpt>
      <trkpt lat="45.00677" lon="-0.62338">
        <ele>7</ele>
        <time>2025-02-05T05:10:25Z</time>
      </trkpt>
      <trkpt lat="45.00679" lon="-0.62237">
        <ele>7</ele>
        <time>2025-02-05T05:10:49Z</time>
      </trkpt>
      <trkpt lat="45.00677" lon="-0.62196">
        <ele>8</ele>
        <time>2025-02-05T05:10:58Z</time>
      </trkpt>
      <trkpt lat="45.00673" lon="-0.62182">
        <ele>9</ele>
        <time>2025-02-05T05:11:02Z</time>
      </trkpt>
      <trkpt lat="45.00666" lon="-0.62177">
        <ele>9</ele>
        <time>2025-02-05T05:11:05Z</time>
      </trkpt>
      <trkpt lat="45.00523" lon="-0.62093">
        <ele>9</ele>
        <time>2025-02-05T05:11:56Z</time>
      </trkpt>
      <trkpt lat="45.00496" lon="-0.62126">
        <ele>8</ele>
        <time>2025-02-05T05:12:08Z</time>
      </trkpt>
      <trkpt lat="45.00466" lon="-0.62161">
        <ele>8</ele>
        <time>2025-02-05T05:12:21Z</time>
      </trkpt>
      <trkpt lat="45.00459" lon="-0.62153">
        <ele>8</ele>
        <time>2025-02-05T05:12:24Z</time>
      </trkpt>
      <trkpt lat="45.00436" lon="-0.62101">
        <ele>8</ele>
        <time>2025-02-05T05:12:39Z</time>
      </trkpt>
      <trkpt lat="45.0042" lon="-0.62044">
        <ele>8</ele>
        <time>2025-02-05T05:12:53Z</time>
      </trkpt>
      <trkpt lat="45.00414" lon="-0.6203">
        <ele>8</ele>
        <time>2025-02-05T05:12:57Z</time>
      </trkpt>
      <trkpt lat="45.00406" lon="-0.62022">
        <ele>9</ele>
        <time>2025-02-05T05:13:00Z</time>
      </trkpt>
      <trkpt lat="45.00336" lon="-0.61974">
        <ele>9</ele>
        <time>2025-02-05T05:13:26Z</time>
      </trkpt>
      <trkpt lat="45.00325" lon="-0.61973">
        <ele>9</ele>
        <time>2025-02-05T05:13:30Z</time>
      </trkpt>
      <trkpt lat="45.00258" lon="-0.62003">
        <ele>6</ele>
        <time>2025-02-05T05:13:53Z</time>
      </trkpt>
      <trkpt lat="45.00269" lon="-0.62127">
        <ele>9</ele>
        <time>2025-02-05T05:14:23Z</time>
      </trkpt>
      <trkpt lat="45.00277" lon="-0.62161">
        <ele>9</ele>
        <time>2025-02-05T05:14:31Z</time>
      </trkpt>
      <trkpt lat="45.00287" lon="-0.62258">
        <ele>10</ele>
        <time>2025-02-05T05:14:54Z</time>
      </trkpt>
      <trkpt lat="45.00318" lon="-0.62255">
        <ele>11</ele>
        <time>2025-02-05T05:15:05Z</time>
      </trkpt>
      <trkpt lat="45.0035" lon="-0.62248">
        <ele>11</ele>
        <time>2025-02-05T05:15:16Z</time>
      </trkpt>
      <trkpt lat="45.00383" lon="-0.62238">
        <ele>10</ele>
        <time>2025-02-05T05:15:27Z</time>
      </trkpt>
      <trkpt lat="45.00393" lon="-0.6224">
        <ele>9</ele>
        <time>2025-02-05T05:15:30Z</time>
      </trkpt>
      <trkpt lat="45.00401" lon="-0.62247">
        <ele>9</ele>
        <time>2025-02-05T05:15:33Z</time>
      </trkpt>
      <trkpt lat="45.00437" lon="-0.62195">
        <ele>9</ele>
        <time>2025-02-05T05:15:50Z</time>
      </trkpt>
      <trkpt lat="45.00465" lon="-0.62164">
        <ele>8</ele>
        <time>2025-02-05T05:16:02Z</time>
      </trkpt>
      <trkpt lat="45.00498" lon="-0.62191">
        <ele>8</ele>
        <time>2025-02-05T05:16:15Z</time>
      </trkpt>
      <trkpt lat="45.00536" lon="-0.62228">
        <ele>7</ele>
        <time>2025-02-05T05:16:30Z</time>
      </trkpt>
      <trkpt lat="45.00549" lon="-0.6224">
        <ele>7</ele>
        <time>2025-02-05T05:16:36Z</time>
      </trkpt>
      <trkpt lat="45.00614" lon="-0.62311">
        <ele>6</ele>
        <time>2025-02-05T05:17:03Z</time>
      </trkpt>
      <trkpt lat="45.00673" lon="-0.62373">
        <ele>7</ele>
        <time>2025-02-05T05:17:28Z</time>
      </trkpt>
      <trkpt lat="45.00676" lon="-0.62394">
        <ele>8</ele>
        <time>2025-02-05T05:17:33Z</time>
      </trkpt>
      <trkpt lat="45.00672" lon="-0.62527">
        <ele>10</ele>
        <time>2025-02-05T05:18:04Z</time>
      </trkpt>
      <trkpt lat="45.00672" lon="-0.62571">
        <ele>10</ele>
        <time>2025-02-05T05:18:14Z</time>
      </trkpt>
      <trkpt lat="45.00677" lon="-0.6262">
        <ele>10</ele>
        <time>2025-02-05T05:18:26Z</time>
      </trkpt>
      <trkpt lat="45.00693" lon="-0.62704">
        <ele>10</ele>
        <time>2025-02-05T05:18:47Z</time>
      </trkpt>
      <trkpt lat="45.00703" lon="-0.62777">
        <ele>10</ele>
        <time>2025-02-05T05:19:04Z</time>
      </trkpt>
      <trkpt lat="45.00702" lon="-0.62811">
        <ele>10</ele>
        <time>2025-02-05T05:19:12Z</time>
      </trkpt>
      <trkpt lat="45.007" lon="-0.62835">
        <ele>10</ele>
        <time>2025-02-05T05:19:18Z</time>
      </trkpt>
      <trkpt lat="45.00691" lon="-0.62886">
        <ele>9</ele>
        <time>2025-02-05T05:19:30Z</time>
      </trkpt>
      <trkpt lat="45.00682" lon="-0.62936">
        <ele>8</ele>
        <time>2025-02-05T05:19:42Z</time>
      </trkpt>
      <trkpt lat="45.00663" lon="-0.63027">
        <ele>8</ele>
        <time>2025-02-05T05:20:05Z</time>
      </trkpt>
      <trkpt lat="45.00652" lon="-0.63047">
        <ele>9</ele>
        <time>2025-02-05T05:20:11Z</time>
      </trkpt>
      <trkpt lat="45.00638" lon="-0.6309">
        <ele>11</ele>
        <time>2025-02-05T05:20:22Z</time>
      </trkpt>
      <trkpt lat="45.0062" lon="-0.63136">
        <ele>12</ele>
        <time>2025-02-05T05:20:34Z</time>
      </trkpt>
      <trkpt lat="45.00561" lon="-0.63255">
        <ele>12</ele>
        <time>2025-02-05T05:21:09Z</time>
      </trkpt>
      <trkpt lat="45.00546" lon="-0.63293">
        <ele>11</ele>
        <time>2025-02-05T05:21:19Z</time>
      </trkpt>
      <trkpt lat="45.00528" lon="-0.63343">
        <ele>9</ele>
        <time>2025-02-05T05:21:32Z</time>
      </trkpt>
      <trkpt lat="45.00514" lon="-0.63387">
        <ele>10</ele>
        <time>2025-02-05T05:21:43Z</time>
      </trkpt>
      <trkpt lat="45.00505" lon="-0.63423">
        <ele>11</ele>
        <time>2025-02-05T05:21:52Z</time>
      </trkpt>
      <trkpt lat="45.00484" lon="-0.63552">
        <ele>11</ele>
        <time>2025-02-05T05:22:24Z</time>
      </trkpt>
      <trkpt lat="45.00466" lon="-0.63679">
        <ele>10</ele>
        <time>2025-02-05T05:22:54Z</time>
      </trkpt>
      <trkpt lat="45.00431" lon="-0.63907">
        <ele>13</ele>
        <time>2025-02-05T05:23:49Z</time>
      </trkpt>
      <trkpt lat="45.00421" lon="-0.63976">
        <ele>14</ele>
        <time>2025-02-05T05:24:06Z</time>
      </trkpt>
      <trkpt lat="45.00413" lon="-0.64019">
        <ele>14</ele>
        <time>2025-02-05T05:24:16Z</time>
      </trkpt>
      <trkpt lat="45.00378" lon="-0.64115">
        <ele>13</ele>
        <time>2025-02-05T05:24:42Z</time>
      </trkpt>
      <trkpt lat="45.00383" lon="-0.64115">
        <ele>13</ele>
        <time>2025-02-05T05:24:44Z</time>
      </trkpt>
      <trkpt lat="45.00449" lon="-0.64079">
        <ele>14</ele>
        <time>2025-02-05T05:25:07Z</time>
      </trkpt>
      <trkpt lat="45.00496" lon="-0.64068">
        <ele>13</ele>
        <time>2025-02-05T05:25:23Z</time>
      </trkpt>
      <trkpt lat="45.00515" lon="-0.64058">
        <ele>13</ele>
        <time>2025-02-05T05:25:30Z</time>
      </trkpt>
      <trkpt lat="45.00551" lon="-0.64023">
        <ele>12</ele>
        <time>2025-02-05T05:25:44Z</time>
      </trkpt>
      <trkpt lat="45.00625" lon="-0.63943">
        <ele>11</ele>
        <time>2025-02-05T05:26:15Z</time>
      </trkpt>
      <trkpt lat="45.00666" lon="-0.63896">
        <ele>11</ele>
        <time>2025-02-05T05:26:33Z</time>
      </trkpt>
      <trkpt lat="45.00723" lon="-0.63836">
        <ele>9</ele>
        <time>2025-02-05T05:26:57Z</time>
      </trkpt>
      <trkpt lat="45.0076" lon="-0.63798">
        <ele>8</ele>
        <time>2025-02-05T05:27:12Z</time>
      </trkpt>
      <trkpt lat="45.00824" lon="-0.6373">
        <ele>9</ele>
        <time>2025-02-05T05:27:39Z</time>
      </trkpt>
      <trkpt lat="45.00861" lon="-0.63692">
        <ele>11</ele>
        <time>2025-02-05T05:27:54Z</time>
      </trkpt>
      <trkpt lat="45.00923" lon="-0.63638">
        <ele>12</ele>
        <time>2025-02-05T05:28:18Z</time>
      </trkpt>
      <trkpt lat="45.00962" lon="-0.63646">
        <ele>11</ele>
        <time>2025-02-05T05:28:31Z</time>
      </trkpt>
      <trkpt lat="45.01019" lon="-0.63663">
        <ele>9</ele>
        <time>2025-02-05T05:28:51Z</time>
      </trkpt>
      <trkpt lat="45.0106" lon="-0.63676">
        <ele>10</ele>
        <time>2025-02-05T05:29:05Z</time>
      </trkpt>
      <trkpt lat="45.0107" lon="-0.63676">
        <ele>10</ele>
        <time>2025-02-05T05:29:08Z</time>
      </trkpt>
      <trkpt lat="45.01077" lon="-0.63673">
        <ele>10</ele>
        <time>2025-02-05T05:29:11Z</time>
      </trkpt>
      <trkpt lat="45.01093" lon="-0.63772">
        <ele>10</ele>
        <time>2025-02-05T05:29:35Z</time>
      </trkpt>
      <trkpt lat="45.01115" lon="-0.63876">
        <ele>10</ele>
        <time>2025-02-05T05:30:00Z</time>
      </trkpt>
      <trkpt lat="45.01142" lon="-0.63962">
        <ele>9</ele>
        <time>2025-02-05T05:30:22Z</time>
      </trkpt>
      <trkpt lat="45.01176" lon="-0.64041">
        <ele>9</ele>
        <time>2025-02-05T05:30:44Z</time>
      </trkpt>
      <trkpt lat="45.01211" lon="-0.64101">
        <ele>10</ele>
        <time>2025-02-05T05:31:03Z</time>
      </trkpt>
      <trkpt lat="45.01219" lon="-0.64125">
        <ele>11</ele>
        <time>2025-02-05T05:31:09Z</time>
      </trkpt>
      <trkpt lat="45.01237" lon="-0.64117">
        <ele>11</ele>
        <time>2025-02-05T05:31:15Z</time>
      </trkpt>
      <trkpt lat="45.01351" lon="-0.6408">
        <ele>12</ele>
        <time>2025-02-05T05:31:54Z</time>
      </trkpt>
      <trkpt lat="45.01371" lon="-0.64074">
        <ele>11</ele>
        <time>2025-02-05T05:32:01Z</time>
      </trkpt>
      <trkpt lat="45.01389" lon="-0.64076">
        <ele>9</ele>
        <time>2025-02-05T05:32:07Z</time>
      </trkpt>
      <trkpt lat="45.01404" lon="-0.64086">
        <ele>8</ele>
        <time>2025-02-05T05:32:12Z</time>
      </trkpt>
      <trkpt lat="45.01412" lon="-0.64096">
        <ele>8</ele>
        <time>2025-02-05T05:32:16Z</time>
      </trkpt>
      <trkpt lat="45.01421" lon="-0.64101">
        <ele>7</ele>
        <time>2025-02-05T05:32:19Z</time>
      </trkpt>
      <trkpt lat="45.01438" lon="-0.641">
        <ele>7</ele>
        <time>2025-02-05T05:32:25Z</time>
      </trkpt>
      <trkpt lat="45.01412" lon="-0.64167">
        <ele>8</ele>
        <time>2025-02-05T05:32:43Z</time>
      </trkpt>
      <trkpt lat="45.01371" lon="-0.64257">
        <ele>11</ele>
        <time>2025-02-05T05:33:08Z</time>
      </trkpt>
      <trkpt lat="45.01344" lon="-0.64276">
        <ele>10</ele>
        <time>2025-02-05T05:33:18Z</time>
      </trkpt>
      <trkpt lat="45.01315" lon="-0.64287">
        <ele>10</ele>
        <time>2025-02-05T05:33:28Z</time>
      </trkpt>
      <trkpt lat="45.01266" lon="-0.64298">
        <ele>9</ele>
        <time>2025-02-05T05:33:45Z</time>
      </trkpt>
      <trkpt lat="45.01208" lon="-0.64316">
        <ele>8</ele>
        <time>2025-02-05T05:34:05Z</time>
      </trkpt>
      <trkpt lat="45.01101" lon="-0.64385">
        <ele>10</ele>
        <time>2025-02-05T05:34:44Z</time>
      </trkpt>
      <trkpt lat="45.01076" lon="-0.64316">
        <ele>13</ele>
        <time>2025-02-05T05:35:02Z</time>
      </trkpt>
      <trkpt lat="45.0104" lon="-0.64213">
        <ele>13</ele>
        <time>2025-02-05T05:35:29Z</time>
      </trkpt>
      <trkpt lat="45.01009" lon="-0.64223">
        <ele>13</ele>
        <time>2025-02-05T05:35:40Z</time>
      </trkpt>
      <trkpt lat="45.00948" lon="-0.64238">
        <ele>13</ele>
        <time>2025-02-05T05:36:01Z</time>
      </trkpt>
      <trkpt lat="45.00902" lon="-0.6425">
        <ele>13</ele>
        <time>2025-02-05T05:36:16Z</time>
      </trkpt>
      <trkpt lat="45.00858" lon="-0.64273">
        <ele>14</ele>
        <time>2025-02-05T05:36:32Z</time>
      </trkpt>
      <trkpt lat="45.00733" lon="-0.64341">
        <ele>15</ele>
        <time>2025-02-05T05:37:16Z</time>
      </trkpt>
      <trkpt lat="45.00706" lon="-0.64348">
        <ele>15</ele>
        <time>2025-02-05T05:37:26Z</time>
      </trkpt>
      <trkpt lat="45.00671" lon="-0.64346">
        <ele>15</ele>
        <time>2025-02-05T05:37:37Z</time>
      </trkpt>
      <trkpt lat="45.00632" lon="-0.64338">
        <ele>14</ele>
        <time>2025-02-05T05:37:50Z</time>
      </trkpt>
      <trkpt lat="45.00564" lon="-0.64319">
        <ele>12</ele>
        <time>2025-02-05T05:38:14Z</time>
      </trkpt>
      <trkpt lat="45.00543" lon="-0.64316">
        <ele>11</ele>
        <time>2025-02-05T05:38:21Z</time>
      </trkpt>
      <trkpt lat="45.00369" lon="-0.64339">
        <ele>9</ele>
        <time>2025-02-05T05:39:19Z</time>
      </trkpt>
      <trkpt lat="45.00298" lon="-0.64337">
        <ele>10</ele>
        <time>2025-02-05T05:39:43Z</time>
      </trkpt>
      <trkpt lat="45.00328" lon="-0.64241">
        <ele>11</ele>
        <time>2025-02-05T05:40:07Z</time>
      </trkpt>
      <trkpt lat="45.00369" lon="-0.64134">
        <ele>12</ele>
        <time>2025-02-05T05:40:36Z</time>
      </trkpt>
      <trkpt lat="45.00402" lon="-0.64045">
        <ele>14</ele>
        <time>2025-02-05T05:41:00Z</time>
      </trkpt>
      <trkpt lat="45.0041" lon="-0.64018">
        <ele>14</ele>
        <time>2025-02-05T05:41:07Z</time>
      </trkpt>
      <trkpt lat="45.00419" lon="-0.63977">
        <ele>14</ele>
        <time>2025-02-05T05:41:17Z</time>
      </trkpt>
      <trkpt lat="45.00439" lon="-0.63846">
        <ele>12</ele>
        <time>2025-02-05T05:41:48Z</time>
      </trkpt>
      <trkpt lat="45.00459" lon="-0.63715">
        <ele>11</ele>
        <time>2025-02-05T05:42:20Z</time>
      </trkpt>
      <trkpt lat="45.00473" lon="-0.63613">
        <ele>11</ele>
        <time>2025-02-05T05:42:45Z</time>
      </trkpt>
      <trkpt lat="45.00486" lon="-0.63529">
        <ele>10</ele>
        <time>2025-02-05T05:43:05Z</time>
      </trkpt>
      <trkpt lat="45.00499" lon="-0.63445">
        <ele>11</ele>
        <time>2025-02-05T05:43:25Z</time>
      </trkpt>
      <trkpt lat="45.00507" lon="-0.63408">
        <ele>11</ele>
        <time>2025-02-05T05:43:34Z</time>
      </trkpt>
      <trkpt lat="45.00524" lon="-0.63351">
        <ele>10</ele>
        <time>2025-02-05T05:43:49Z</time>
      </trkpt>
      <trkpt lat="45.00546" lon="-0.63288">
        <ele>11</ele>
        <time>2025-02-05T05:44:05Z</time>
      </trkpt>
      <trkpt lat="45.00557" lon="-0.63259">
        <ele>12</ele>
        <time>2025-02-05T05:44:13Z</time>
      </trkpt>
      <trkpt lat="45.00582" lon="-0.63209">
        <ele>13</ele>
        <time>2025-02-05T05:44:28Z</time>
      </trkpt>
      <trkpt lat="45.00613" lon="-0.63147">
        <ele>13</ele>
        <time>2025-02-05T05:44:46Z</time>
      </trkpt>
      <trkpt lat="45.00627" lon="-0.63115">
        <ele>12</ele>
        <time>2025-02-05T05:44:54Z</time>
      </trkpt>
      <trkpt lat="45.00637" lon="-0.63086">
        <ele>11</ele>
        <time>2025-02-05T05:45:02Z</time>
      </trkpt>
      <trkpt lat="45.00649" lon="-0.63053">
        <ele>9</ele>
        <time>2025-02-05T05:45:11Z</time>
      </trkpt>
      <trkpt lat="45.00658" lon="-0.63038">
        <ele>9</ele>
        <time>2025-02-05T05:45:15Z</time>
      </trkpt>
      <trkpt lat="45.00662" lon="-0.63023">
        <ele>8</ele>
        <time>2025-02-05T05:45:19Z</time>
      </trkpt>
      <trkpt lat="45.00673" lon="-0.62972">
        <ele>7</ele>
        <time>2025-02-05T05:45:32Z</time>
      </trkpt>
      <trkpt lat="45.00689" lon="-0.62899">
        <ele>9</ele>
        <time>2025-02-05T05:45:50Z</time>
      </trkpt>
      <trkpt lat="45.00697" lon="-0.62855">
        <ele>10</ele>
        <time>2025-02-05T05:46:01Z</time>
      </trkpt>
      <trkpt lat="45.00702" lon="-0.6283">
        <ele>10</ele>
        <time>2025-02-05T05:46:07Z</time>
      </trkpt>
      <trkpt lat="45.00703" lon="-0.62804">
        <ele>10</ele>
        <time>2025-02-05T05:46:13Z</time>
      </trkpt>
      <trkpt lat="45.00705" lon="-0.62778">
        <ele>10</ele>
        <time>2025-02-05T05:46:19Z</time>
      </trkpt>
      <trkpt lat="45.00699" lon="-0.6274">
        <ele>10</ele>
        <time>2025-02-05T05:46:28Z</time>
      </trkpt>
      <trkpt lat="45.00692" lon="-0.62696">
        <ele>10</ele>
        <time>2025-02-05T05:46:39Z</time>
      </trkpt>
      <trkpt lat="45.00684" lon="-0.62653">
        <ele>10</ele>
        <time>2025-02-05T05:46:49Z</time>
      </trkpt>
      <trkpt lat="45.00677" lon="-0.62613">
        <ele>10</ele>
        <time>2025-02-05T05:46:59Z</time>
      </trkpt>
      <trkpt lat="45.00673" lon="-0.62575">
        <ele>10</ele>
        <time>2025-02-05T05:47:08Z</time>
      </trkpt>
      <trkpt lat="45.00673" lon="-0.6253">
        <ele>10</ele>
        <time>2025-02-05T05:47:19Z</time>
      </trkpt>
      <trkpt lat="45.00673" lon="-0.62482">
        <ele>10</ele>
        <time>2025-02-05T05:47:30Z</time>
      </trkpt>
      <trkpt lat="45.00676" lon="-0.62424">
        <ele>8</ele>
        <time>2025-02-05T05:47:44Z</time>
      </trkpt>
      <trkpt lat="45.00677" lon="-0.62396">
        <ele>8</ele>
        <time>2025-02-05T05:47:50Z</time>
      </trkpt>
      <trkpt lat="45.00674" lon="-0.62376">
        <ele>8</ele>
        <time>2025-02-05T05:47:55Z</time>
      </trkpt>
      <trkpt lat="45.00676" lon="-0.62359">
        <ele>7</ele>
        <time>2025-02-05T05:47:59Z</time>
      </trkpt>
      <trkpt lat="45.00679" lon="-0.623">
        <ele>7</ele>
        <time>2025-02-05T05:48:13Z</time>
      </trkpt>
      <trkpt lat="45.0068" lon="-0.62242">
        <ele>7</ele>
        <time>2025-02-05T05:48:27Z</time>
      </trkpt>
      <trkpt lat="45.00678" lon="-0.62199">
        <ele>8</ele>
        <time>2025-02-05T05:48:37Z</time>
      </trkpt>
      <trkpt lat="45.00675" lon="-0.62184">
        <ele>9</ele>
        <time>2025-02-05T05:48:41Z</time>
      </trkpt>
      <trkpt lat="45.00649" lon="-0.62166">
        <ele>9</ele>
        <time>2025-02-05T05:48:50Z</time>
      </trkpt>
      <trkpt lat="45.00562" lon="-0.62114">
        <ele>8</ele>
        <time>2025-02-05T05:49:22Z</time>
      </trkpt>
      <trkpt lat="45.00522" lon="-0.62091">
        <ele>9</ele>
        <time>2025-02-05T05:49:36Z</time>
      </trkpt>
      <trkpt lat="45.00497" lon="-0.62123">
        <ele>9</ele>
        <time>2025-02-05T05:49:48Z</time>
      </trkpt>
      <trkpt lat="45.00468" lon="-0.62161">
        <ele>8</ele>
        <time>2025-02-05T05:50:01Z</time>
      </trkpt>
      <trkpt lat="45.0046" lon="-0.62155">
        <ele>8</ele>
        <time>2025-02-05T05:50:04Z</time>
      </trkpt>
      <trkpt lat="45.00439" lon="-0.62103">
        <ele>8</ele>
        <time>2025-02-05T05:50:18Z</time>
      </trkpt>
      <trkpt lat="45.00421" lon="-0.6204">
        <ele>8</ele>
        <time>2025-02-05T05:50:34Z</time>
      </trkpt>
      <trkpt lat="45.00416" lon="-0.6203">
        <ele>8</ele>
        <time>2025-02-05T05:50:37Z</time>
      </trkpt>
      <trkpt lat="45.00409" lon="-0.62022">
        <ele>9</ele>
        <time>2025-02-05T05:50:40Z</time>
      </trkpt>
      <trkpt lat="45.00367" lon="-0.61993">
        <ele>9</ele>
        <time>2025-02-05T05:50:55Z</time>
      </trkpt>
      <trkpt lat="45.00339" lon="-0.61975">
        <ele>9</ele>
        <time>2025-02-05T05:51:06Z</time>
      </trkpt>
      <trkpt lat="45.00329" lon="-0.61972">
        <ele>9</ele>
        <time>2025-02-05T05:51:09Z</time>
      </trkpt>
      <trkpt lat="45.00311" lon="-0.61981">
        <ele>8</ele>
        <time>2025-02-05T05:51:15Z</time>
      </trkpt>
      <trkpt lat="45.00257" lon="-0.62003">
        <ele>6</ele>
        <time>2025-02-05T05:51:34Z</time>
      </trkpt>
      <trkpt lat="45.00263" lon="-0.62055">
        <ele>8</ele>
        <time>2025-02-05T05:51:47Z</time>
      </trkpt>
      <trkpt lat="45.00269" lon="-0.62131">
        <ele>9</ele>
        <time>2025-02-05T05:52:05Z</time>
      </trkpt>
      <trkpt lat="45.00275" lon="-0.62158">
        <ele>9</ele>
        <time>2025-02-05T05:52:11Z</time>
      </trkpt>
      <trkpt lat="45.00286" lon="-0.62259">
        <ele>10</ele>
        <time>2025-02-05T05:52:35Z</time>
      </trkpt>
      <trkpt lat="45.00321" lon="-0.62255">
        <ele>11</ele>
        <time>2025-02-05T05:52:47Z</time>
      </trkpt>
      <trkpt lat="45.00353" lon="-0.62248">
        <ele>10</ele>
        <time>2025-02-05T05:52:58Z</time>
      </trkpt>
      <trkpt lat="45.0038" lon="-0.62239">
        <ele>10</ele>
        <time>2025-02-05T05:53:07Z</time>
      </trkpt>
      <trkpt lat="45.00391" lon="-0.62239">
        <ele>10</ele>
        <time>2025-02-05T05:53:11Z</time>
      </trkpt>
      <trkpt lat="45.00401" lon="-0.62246">
        <ele>9</ele>
        <time>2025-02-05T05:53:15Z</time>
      </trkpt>
      <trkpt lat="45.00427" lon="-0.62207">
        <ele>9</ele>
        <time>2025-02-05T05:53:27Z</time>
      </trkpt>
      <trkpt lat="45.00445" lon="-0.62185">
        <ele>9</ele>
        <time>2025-02-05T05:53:35Z</time>
      </trkpt>
      <trkpt lat="45.00465" lon="-0.62163">
        <ele>8</ele>
        <time>2025-02-05T05:53:44Z</time>
      </trkpt>
      <trkpt lat="45.00495" lon="-0.62187">
        <ele>8</ele>
        <time>2025-02-05T05:53:55Z</time>
      </trkpt>
      <trkpt lat="45.00541" lon="-0.62232">
        <ele>7</ele>
        <time>2025-02-05T05:54:14Z</time>
      </trkpt>
      <trkpt lat="45.00558" lon="-0.62248">
        <ele>7</ele>
        <time>2025-02-05T05:54:21Z</time>
      </trkpt>
      <trkpt lat="45.00605" lon="-0.62298">
        <ele>6</ele>
        <time>2025-02-05T05:54:40Z</time>
      </trkpt>
      <trkpt lat="45.00642" lon="-0.62338">
        <ele>6</ele>
        <time>2025-02-05T05:54:56Z</time>
      </trkpt>
      <trkpt lat="45.00614" lon="-0.62396">
        <ele>7</ele>
        <time>2025-02-05T05:55:12Z</time>
      </trkpt>
      <trkpt lat="45.00595" lon="-0.62416">
        <ele>7</ele>
        <time>2025-02-05T05:55:20Z</time>
      </trkpt>
      <trkpt lat="45.00586" lon="-0.62407">
        <ele>7</ele>
        <time>2025-02-05T05:55:24Z</time>
      </trkpt>
      <trkpt lat="45.00576" lon="-0.62394">
        <ele>7</ele>
        <time>2025-02-05T05:55:28Z</time>
      </trkpt>
      <trkpt lat="45.00567" lon="-0.62382">
        <ele>6</ele>
        <time>2025-02-05T05:55:33Z</time>
      </trkpt>
      <trkpt lat="45.00558" lon="-0.62374">
        <ele>6</ele>
        <time>2025-02-05T05:55:36Z</time>
      </trkpt>
      <trkpt lat="45.00549" lon="-0.62368">
        <ele>7</ele>
        <time>2025-02-05T05:55:39Z</time>
      </trkpt>
      <trkpt lat="45.00539" lon="-0.62367">
        <ele>7</ele>
        <time>2025-02-05T05:55:43Z</time>
      </trkpt>
      <trkpt lat="45.00529" lon="-0.62369">
        <ele>7</ele>
        <time>2025-02-05T05:55:46Z</time>
      </trkpt>
      <trkpt lat="45.00518" lon="-0.62383">
        <ele>7</ele>
        <time>2025-02-05T05:55:51Z</time>
      </trkpt>
      <trkpt lat="45.00471" lon="-0.62479">
        <ele>10</ele>
        <time>2025-02-05T05:56:19Z</time>
      </trkpt>
      <trkpt lat="45.00468" lon="-0.62494">
        <ele>11</ele>
        <time>2025-02-05T05:56:22Z</time>
      </trkpt>
      <trkpt lat="45.00473" lon="-0.62513">
        <ele>11</ele>
        <time>2025-02-05T05:56:27Z</time>
      </trkpt>
      <trkpt lat="45.00482" lon="-0.62523">
        <ele>11</ele>
        <time>2025-02-05T05:56:31Z</time>
      </trkpt>
      <trkpt lat="45.00493" lon="-0.62534">
        <ele>11</ele>
        <time>2025-02-05T05:56:35Z</time>
      </trkpt>
      <trkpt lat="45.00499" lon="-0.62538">
        <ele>11</ele>
        <time>2025-02-05T05:56:38Z</time>
      </trkpt>
      <trkpt lat="45.00511" lon="-0.62544">
        <ele>11</ele>
        <time>2025-02-05T05:56:42Z</time>
      </trkpt>
      <trkpt lat="45.00519" lon="-0.62542">
        <ele>11</ele>
        <time>2025-02-05T05:56:45Z</time>
      </trkpt>
      <trkpt lat="45.00527" lon="-0.62535">
        <ele>10</ele>
        <time>2025-02-05T05:56:48Z</time>
      </trkpt>
      <trkpt lat="45.00553" lon="-0.62481">
        <ele>9</ele>
        <time>2025-02-05T05:57:03Z</time>
      </trkpt>
    </trkseg>
  </trk>
</gpx>